Terminal Aerodrome Forecast
Issued by NWS Twin Cities, MN

Home | Current Version | Previous Version | Text Only | Print | Product List | Glossary Off
Versions: 1 2 3 4 5 6 7 8 9 10 11 12 13 14 15

000
FTUS43 KMPX 080400 AAA
TAFEAU
TAF AMD
KEAU 080432Z 0805/0824 27005KT P6SM SCT070
      TEMPO 0805/0809 BKN002
     FM081500 30013G20KT P6SM SCT050=

USA.gov is the U.S. government's official web portal to all federal, state and local government web resources and services.